KTRKKSAN

Guest
Details From KTRK - Truckee Tahoe
To KSAN - San Diego Intl
Flight Number -
Tags Generated
Created
Modified
Stats Distance 420 nm / 778 km
Max Altitude 0 ft / 0 m
Waypoints 3
Social Downloads 0
Likes 0
Share VATSIM

Download

Looking for another format? Having issues loading an existing format? Contact us
Advertisement - Login to hide

Notes

Generated

Route

KTRK SWOLF KSAN

ID Type Via Altitude Latitude Longitude Leg Dist Tot Dist Heading (true) Name
O KTRK APT - 0 ft / 0 m 39.31452˚ -120.13997˚ - 0 nm - -
SWOLF FIX - 0 ft / 0 m 32.91905˚ -117.28045˚ 408 nm 408 nm 159° / 161° -
O KSAN APT - 0 ft / 0 m 32.73712˚ -117.20435˚ 11 nm 419 nm 161° / 161° -

Altitude Profile

Advertisement - Login to hide

Weather


0- 5 10 15 20 25 30 35+ Temperature / ° C

Clouds and Precipitation
Forecast for 2017-12-17 18:00 UTC. Updated 31 minutes ago

Ground ~20,000 ft ~40,000 ft Winds

KTRK

Details ICAO KTRK (TKF)
Name Truckee Tahoe
Region United States
Timezone America/Los_Angeles (UTC-8.0)
Stats Elevation 5,900 ft / 1,798 m (AMSL)
Location 39.320042° -120.138942°
Runways 2
Magnetic Variation 13.438° E

METAR

KTRK 171655Z 00000KT 10SM SKC M06/M10 A3019

Decode

TAF

TAF KTRK 171120Z 1712/1812 VRB03KT P6SM FEW200

Decode

Departure Runways

ID Width Length Bearing (true) Bearing (mag) Surface Threshold Offset Overrun Length
01 75 ft / 23 m 4,653 ft / 1,418 m 29.88° 16.44° Asphalt 0 ft / 0 m 0 ft / 0 m
10 100 ft / 30 m 6,990 ft / 2,131 m 120.08° 106.64° Asphalt 0 ft / 0 m 0 ft / 0 m
19 75 ft / 23 m 4,653 ft / 1,418 m 209.88° 196.44° Asphalt 115 ft / 35 m 0 ft / 0 m
28 100 ft / 30 m 6,990 ft / 2,131 m 300.09° 286.65° Asphalt 0 ft / 0 m 0 ft / 0 m

KSAN

Details ICAO KSAN (SAN)
Name San Diego Intl
Region United States
Timezone America/Los_Angeles (UTC-8.0)
Stats Elevation 17 ft / 5 m (AMSL)
Location 32.733556° -117.189658°
Runways 1
Magnetic Variation 11.524° E

METAR

KSAN 171651Z 00000KT 8SM SCT100 14/08 A2990 RMK AO2 SLP125 T01440083

Decode

TAF

TAF AMD KSAN 171505Z 1715/1818 VRB04KT P6SM FEW100 FM172100 30009KT P6SM SKC FM180100 VRB04KT P6SM SKC

Decode

Destination Runways

ID Width Length Bearing (true) Bearing (mag) Surface Threshold Offset Overrun Length
09 200 ft / 61 m 9,387 ft / 2,861 m 106.07° 94.55° Asphalt 699 ft / 213 m 269 ft / 82 m
27 200 ft / 61 m 9,387 ft / 2,861 m 286.08° 274.56° Asphalt 1,811 ft / 552 m 0 ft / 0 m

Approach Navaids

Runway Type Ident Frequency Range Bearing (true) Bearing (mag) Slope Elevation
09 Localiser ISAN 111.55 MHz 18 nm / 33 km 106.08° 94.55° - 17 ft / 5 m (AMSL)
09 Glidescope ISAN 111.55 MHz 10 nm / 19 km 106.08° 94.55° 3.22° 13 ft / 4 m (AMSL)
09 DME ISAN 111.55 MHz 18 nm / 33 km - - - 29 ft / 9 m (AMSL)
27 Localiser IUBR 110.90 MHz 18 nm / 33 km 286.07° 274.54° - 13 ft / 4 m (AMSL)
27 DME IUBR 110.90 MHz 18 nm / 33 km - - - 26 ft / 8 m (AMSL)